• Join FlightAware (Why Join?)
  • Login
  • US Flag 
08:05PM EDT


 

Airport Tracker/Info


-or-


 

Live Flight TrackerFlight Track Log ✈ SWA1688 ✈ 19-May-2013 ✈ KMCO - KALB

Flight Track Log - Related Links

Times and Time Zones

All times are in EDT time to prevent confusion due to time zone crossing. See the SWA1688 flight status page for this flight to view local times or setup timezone preferences in your user account.

Time Position Orientation Groundspeed Altitude Reporting Facility
EDT Latitude Longitude Course Direction KTS MPH feet Rate Location/Type
10:58PM 28.4000 -81.3000 156° South 161 185 700  Level Orlando TRACON
10:58PM 28.3667 -81.2833 156° South 195 224 2,500 2,940 Climbing Orlando TRACON
11:00PM 28.3597 -81.1431 93° East 185 213 9,500 2,880 Climbing Miami Center
11:01PM 28.3667 -81.0514 85° East 226 260 11,300 2,400 Climbing Miami Center
11:02PM 28.3717 -80.9525 87° East 305 351 14,400 3,180 Climbing Miami Center
11:03PM 28.4061 -80.8358 71° East 346 398 17,700 2,700 Climbing Miami Center
11:05PM 28.4486 -80.7358 64° Northeast 369 425 19,900 2,220 Climbing Miami Center
11:05PM 28.4933 -80.6217 66° East 383 441 22,200 2,400 Climbing Miami Center
11:06PM 28.5447 -80.4886 66° East 406 467 24,700 2,160 Climbing Miami Center
11:08PM 28.5961 -80.3603 65° Northeast 422 486 26,600 1,920 Climbing Miami Center
11:08PM 28.6533 -80.2344 63° Northeast 439 505 28,600 1,920 Climbing Miami Center
11:10PM 28.7250 -80.1158 55° Northeast 439 505 30,500 1,680 Climbing Miami Center
11:11PM 28.8047 -80.0022 51° Northeast 451 519 32,100 1,860 Climbing Miami Center
11:12PM 28.8883 -79.8931 49° Northeast 456 525 34,300 1,920 Climbing Miami Center
11:12PM 28.9742 -79.7839 48° Northeast 456 525 35,900 1,500 Climbing Miami Center
11:13PM 29.0594 -79.6864 45° Northeast 450 518 37,300 1,080 Climbing Miami Center
11:14PM 29.1731 -79.6419 19° North 415 478 38,100 780 Climbing Miami Center
11:16PM 29.2883 -79.6044 16° North 421 484 39,000 420 Climbing Miami Center
11:16PM 29.4061 -79.5669 16° North 427 491 39,000 -60 Level Miami Center
11:17PM 29.5256 -79.5292 15° North 432 497 38,900  Descending Miami Center
11:18PM 29.6431 -79.4917 16° North 432 497 39,000  Climbing Miami Center
11:19PM 29.7481 -79.4511 19° North 443 510 39,000  Level Miami Center
11:21PM 29.9467 -79.3786 18° North 444 511 39,000  Level Jacksonville Center
11:22PM 30.0711 -79.3478 12° North 439 505 39,000  Level Jacksonville Center
11:23PM 30.1850 -79.3122 15° North 429 494 39,000  Level Jacksonville Center
11:24PM 30.2986 -79.2744 16° North 424 488 39,000  Level Jacksonville Center
11:25PM 30.4103 -79.2339 17° North 418 481 39,000  Level Jacksonville Center
11:26PM 30.5219 -79.1961 16° North 412 474 39,000  Level Jacksonville Center
11:27PM 30.6378 -79.1603 15° North 422 486 39,000  Level Jacksonville Center
11:28PM 30.7536 -79.1217 16° North 417 480 39,000  Level Jacksonville Center
11:29PM 30.8714 -79.0808 17° North 422 486 39,000  Level Jacksonville Center
11:30PM 30.9869 -79.0422 16° North 427 491 39,000  Level Jacksonville Center
11:31PM 31.1050 -79.0058 15° North 427 491 39,000  Level Jacksonville Center
11:32PM 31.2186 -78.9672 16° North 427 491 39,000  Level Jacksonville Center
11:33PM 31.3322 -78.9283 16° North 427 491 39,000  Level Jacksonville Center
11:34PM 31.4500 -78.8892 16° North 432 497 39,000  Level Jacksonville Center
11:35PM 31.5675 -78.8500 16° North 432 497 39,000  Level Jacksonville Center
11:36PM 31.6853 -78.8108 16° North 437 503 39,000  Level Jacksonville Center
11:37PM 31.8053 -78.7711 16° North 432 497 39,000  Level Jacksonville Center
11:38PM 31.9247 -78.7267 18° North 432 497 39,000  Level Jacksonville Center
11:39PM 32.0444 -78.6869 16° North 437 503 39,000  Level Jacksonville Center
11:40PM 32.1642 -78.6472 16° North 437 503 39,000  Level Jacksonville Center
11:41PM 32.2839 -78.6047 17° North 437 503 39,000  Level Jacksonville Center
11:42PM 32.4014 -78.5647 16° North 442 509 39,000  Level Jacksonville Center
11:43PM 32.5211 -78.5197 18° North 442 509 39,000  Level Jacksonville Center
11:44PM 32.6386 -78.4769 17° North 442 509 39,000  Level Jacksonville Center
11:45PM 32.7561 -78.4392 15° North 436 502 39,000  Level Jacksonville Center
11:46PM 32.8714 -78.3939 18° North 431 496 39,000  Level Jacksonville Center
11:47PM 32.9869 -78.3583 14° North 431 496 39,000  Level Jacksonville Center
11:48PM 33.1025 -78.3178 16° North 431 496 39,000  Level Jacksonville Center
11:49PM 33.2178 -78.2797 15° North 431 496 39,000  Level Jacksonville Center
11:51PM 33.3983 -78.2131 17° North 428 493 39,000  Level Washington Center
11:52PM 33.5139 -78.1769 15° North 423 487 39,000  Level Washington Center
11:53PM 33.6275 -78.1356 17° North 423 487 39,000  Level Washington Center
11:54PM 33.7494 -78.0917 17° North 423 487 39,000  Level Washington Center
11:55PM 33.8628 -78.0553 15° North 423 487 39,000  Level Washington Center
11:56PM 33.9825 -78.0111 17° North 423 487 39,000  Level Washington Center
11:57PM 34.0961 -77.9669 18° North 428 493 39,000  Level Washington Center
11:58PM 34.2075 -77.9247 17° North 428 493 39,000  Level Washington Center
11:59PM 34.3250 -77.8881 14° North 422 486 39,000  Level Washington Center
12:00AM 34.4347 -77.8306 23° Northeast 422 486 39,000  Level Washington Center
12:01AM 34.5442 -77.7681 25° Northeast 422 486 39,000  Level Washington Center
12:02AM 34.6517 -77.7078 25° Northeast 422 486 39,000  Level Washington Center
12:03AM 34.7592 -77.6472 25° Northeast 422 486 39,000  Level Washington Center
12:04AM 34.8647 -77.5817 27° Northeast 422 486 39,000  Level Washington Center
12:05AM 34.9783 -77.5211 24° Northeast 427 491 39,000  Level Washington Center
12:06AM 35.0878 -77.4553 26° Northeast 427 491 39,000  Level Washington Center
12:07AM 35.1972 -77.3942 25° Northeast 432 497 39,000  Level Washington Center
12:08AM 35.3067 -77.3306 25° Northeast 427 491 39,000  Level Washington Center
12:09AM 35.4161 -77.2692 25° Northeast 427 491 39,000  Level Washington Center
12:10AM 35.5275 -77.2050 25° Northeast 427 491 39,000  Level Washington Center
12:11AM 35.6286 -77.1458 25° Northeast 434 499 39,000  Level Washington Center
12:12AM 35.7336 -77.0839 26° Northeast 425 489 39,000  Level Washington Center
12:13AM 35.8408 -77.0192 26° Northeast 425 489 39,000  Level Washington Center
12:14AM 35.9522 -76.9569 24° Northeast 425 489 39,000  Level Washington Center
12:15AM 36.0614 -76.8972 24° Northeast 425 489 39,000  Level Washington Center
12:16AM 36.1683 -76.8322 26° Northeast 425 489 39,000  Level Washington Center
12:17AM 36.2775 -76.7669 26° Northeast 425 489 39,000  Level Washington Center
12:18AM 36.3886 -76.7039 25° Northeast 425 489 39,000  Level Washington Center
12:19AM 36.4978 -76.6408 25° Northeast 425 489 39,000  Level Washington Center
12:20AM 36.6069 -76.5753 26° Northeast 425 489 39,000  Level Washington Center
12:21AM 36.7136 -76.5117 26° Northeast 425 489 39,000  Level Washington Center
12:22AM 36.8206 -76.4456 26° Northeast 425 489 39,000  Level Washington Center
12:23AM 36.9275 -76.3817 26° Northeast 425 489 39,000  Level Washington Center
12:24AM 37.0342 -76.3153 26° Northeast 425 489 39,000  Level Washington Center
12:25AM 37.1431 -76.2483 26° Northeast 425 489 39,000  Level Washington Center
12:26AM 37.2519 -76.1817 26° Northeast 425 489 39,000  Level Washington Center
12:27AM 37.3775 -76.1144 23° Northeast 430 495 39,000  Level Washington Center
12:28AM 37.4861 -76.0472 26° Northeast 430 495 39,000  Level Washington Center
12:29AM 37.5947 -75.9822 25° Northeast 425 489 39,000  Level Washington Center
12:30AM 37.7056 -75.9119 27° Northeast 425 489 39,000  Level Washington Center
12:31AM 37.8081 -75.8414 29° Northeast 425 489 39,000  Level Washington Center
12:32AM 37.9228 -75.7786 23° Northeast 425 489 39,000  Level Washington Center
12:33AM 38.0314 -75.7103 26° Northeast 425 489 39,000  Level Washington Center
12:34AM 38.1356 -75.6419 27° Northeast 425 489 39,000  Level Washington Center
12:35AM 38.2419 -75.5706 28° Northeast 425 489 39,000  Level Washington Center
12:36AM 38.3419 -75.5097 26° Northeast 432 497 39,000  Level Washington Center
12:37AM 38.4483 -75.4381 28° Northeast 432 497 39,000  Level Washington Center
12:38AM 38.5567 -75.3714 26° Northeast 427 491 39,000  Level Washington Center
12:39AM 38.6669 -75.3072 24° Northeast 427 491 39,000  Level Washington Center
12:40AM 38.7731 -75.2269 31° Northeast 427 491 39,000  Level Washington Center
12:41AM 38.8811 -75.1622 25° Northeast 427 491 39,000  Level Washington Center
12:42AM 38.9872 -75.0869 29° Northeast 427 491 39,000  Level Washington Center
12:44AM 39.1844 -74.9600 27° Northeast 434 499 39,000  Level New York Center
12:45AM 39.2889 -74.8939 26° Northeast 429 494 39,000  Level New York Center
12:46AM 39.3914 -74.8219 28° Northeast 424 488 39,000  Level New York Center
12:47AM 39.4894 -74.7631 25° Northeast 430 495 39,000  Level New York Center
12:48AM 39.5992 -74.7233 16° North 423 487 39,000  Level New York Center
12:49AM 39.7147 -74.6947 11° North 413 475 39,000  Level New York Center
12:50AM 39.8306 -74.6633 12° North 413 475 39,000 -420 Level New York Center
12:51AM 39.9442 -74.6292 13° North 413 475 38,200 -900 Descending New York Center
12:52AM 40.0597 -74.5975 12° North 413 475 37,300 -1,020 Descending New York Center
12:54AM 40.3578 -74.5069 13° North 423 487 34,800 -1,080 Descending Boston Center
12:55AM 40.4753 -74.4725 13° North 429 494 33,600 -1,620 Descending Boston Center
12:56AM 40.5925 -74.4381 13° North 429 494 31,600 -1,980 Descending Boston Center
12:57AM 40.7119 -74.4061 11° North 434 499 29,700 -1,920 Descending Boston Center
12:58AM 40.8375 -74.3742 11° North 439 505 27,800 -1,620 Descending Boston Center
12:59AM 40.9589 -74.3392 12° North 439 505 26,500 -900 Descending Boston Center
01:00AM 41.0553 -74.3119 12° North 439 505 26,000 -300 Descending Boston Center
01:01AM 41.1747 -74.2767 13° North 426 490 26,000  Level Boston Center
01:02AM 41.3025 -74.2361 13° North 420 483 26,000  Level Boston Center
01:03AM 41.4156 -74.2006 13° North 414 476 26,000 -420 Level Boston Center
01:04AM 41.5306 -74.1678 12° North 414 476 25,200 -900 Descending Boston Center
01:05AM 41.6375 -74.1372 12° North 421 484 24,200 -1,020 Descending Boston Center
01:06AM 41.7525 -74.1014 13° North 421 484 23,200 -1,080 Descending Boston Center
01:06AM 41.7881 -74.0939 North 416 479 22,800 -1,020 Descending Boston Center
01:07AM 41.8550 -74.0761 11° North 398 458 22,200 -1,140 Descending Boston Center
01:07AM 41.9158 -74.0556 14° North 408 470 21,600 -1,020 Descending Boston Center
01:08AM 41.9619 -74.0428 12° North 393 452 21,200 -1,380 Descending Boston Center
01:08AM 42.0247 -74.0247 12° North 398 458 20,200 -2,040 Descending Boston Center
01:09AM 42.0686 -74.0119 12° North 393 452 19,200 -2,400 Descending Boston Center
01:09AM 42.1272 -73.9936 13° North 380 437 17,800 -2,640 Descending Boston Center
01:10AM 42.1836 -73.9756 13° North 387 445 16,600 -2,400 Descending Boston Center
01:10AM 42.2256 -73.9653 10° North 367 422 15,400 -2,340 Descending Boston Center
01:11AM 42.2717 -73.9497 14° North 368 423 14,300 -2,580 Descending Boston Center
01:11AM 42.3239 -73.9397 North 360 414 12,800 -2,700 Descending Boston Center
01:12AM 42.3822 -73.9383 North 358 412 11,600 -2,040 Descending Boston Center
01:12AM 42.4217 -73.9419 356° North 344 396 10,800 -1,320 Descending Boston Center
01:13AM 42.4633 -73.9431 359° North 336 387 10,300 -900 Descending Boston Center
01:13AM 42.5114 -73.9414 North 311 358 9,900 -1,440 Descending Boston Center
01:14AM 42.5550 -73.9425 359° North 307 353 8,900 -1,680 Descending Boston Center
01:14AM 42.5925 -73.9461 356° North 284 327 8,200 -1,200 Descending Boston Center
01:15AM 42.6281 -73.9469 359° North 293 337 7,700 -1,740 Descending Boston Center
01:15AM 42.6781 -73.9453 North 283 326 6,500 -1,740 Descending Boston Center
01:16AM 42.7092 -73.9461 359° North 288 331 6,000 -1,500 Descending Boston Center
01:17AM 42.7553 -73.9417 North 280 322 5,000 -1,440 Descending Boston Center
01:17AM 42.7822 -73.9450 355° North 283 326 4,600 -1,140 Descending Boston Center
01:18AM 42.8322 -73.9406 North 264 304 3,900 -1,200 Descending Boston Center
01:18AM 42.8617 -73.9356 North 264 304 3,400 -1,020 Descending Boston Center
01:19AM 42.8892 -73.9022 42° Northeast 241 277 2,900 -840 Descending Boston Center
01:19AM 42.8978 -73.8714 69° East 221 254 2,600 -840 Descending Boston Center
01:20AM 42.8942 -73.8258 96° East 202 232 2,100 -600 Descending Boston Center
01:20AM 42.8778 -73.8142 152° Southeast 117 135 2,000 -120 Descending Boston Center
01:21AM 42.8506 -73.8136 179° South 150 173 2,000  Level Boston Center
01:21AM 42.8658 -73.7686 65° Northeast 117 135 2,000 -720 Level Boston Center
01:22AM 42.8111 -73.8128 211° Southwest 131 151 1,300 -840 Descending Boston Center
01:23AM 42.7778 -73.8092 175° South 115 132 700 -600 Descending Boston Center